sensor_id;sensor_type;location;lat;lon;timestamp;temperature;humidity
74901;DHT22;63461;51.416;6.758;2023-04-19T00:26:25;11.40;99.90
74901;DHT22;63461;51.416;6.758;2023-04-19T00:32:52;11.50;99.90
74901;DHT22;63461;51.416;6.758;2023-04-19T00:35:18;11.50;99.90
74901;DHT22;63461;51.416;6.758;2023-04-19T00:40:47;11.50;99.90
74901;DHT22;63461;51.416;6.758;2023-04-19T00:43:19;11.50;99.90
74901;DHT22;63461;51.416;6.758;2023-04-19T01:46:01;11.70;99.90
74901;DHT22;63461;51.416;6.758;2023-04-19T01:56:50;11.70;99.90
74901;DHT22;63461;51.416;6.758;2023-04-19T01:59:16;11.70;99.90
74901;DHT22;63461;51.416;6.758;2023-04-19T02:17:59;11.40;99.90
74901;DHT22;63461;51.416;6.758;2023-04-19T02:21:09;11.30;99.90
74901;DHT22;63461;51.416;6.758;2023-04-19T02:29:51;11.20;99.90
74901;DHT22;63461;51.416;6.758;2023-04-19T02:40:12;11.10;99.90
74901;DHT22;63461;51.416;6.758;2023-04-19T02:43:49;11.00;99.90
74901;DHT22;63461;51.416;6.758;2023-04-19T02:46:25;11.00;99.90
74901;DHT22;63461;51.416;6.758;2023-04-19T02:49:19;11.00;99.90
74901;DHT22;63461;51.416;6.758;2023-04-19T02:56:03;10.90;99.90
74901;DHT22;63461;51.416;6.758;2023-04-19T03:17:54;11.00;99.90
74901;DHT22;63461;51.416;6.758;2023-04-19T03:28:55;11.10;99.90
74901;DHT22;63461;51.416;6.758;2023-04-19T03:40:21;11.20;99.90
74901;DHT22;63461;51.416;6.758;2023-04-19T03:47:06;11.20;99.90
74901;DHT22;63461;51.416;6.758;2023-04-19T04:02:15;11.20;99.90
74901;DHT22;63461;51.416;6.758;2023-04-19T04:04:57;11.20;99.90
74901;DHT22;63461;51.416;6.758;2023-04-19T04:14:46;11.20;99.90
74901;DHT22;63461;51.416;6.758;2023-04-19T04:17:20;11.20;99.90
74901;DHT22;63461;51.416;6.758;2023-04-19T04:20:19;11.20;99.90
74901;DHT22;63461;51.416;6.758;2023-04-19T04:41:49;10.80;99.90
74901;DHT22;63461;51.416;6.758;2023-04-19T04:48:34;10.80;99.90
74901;DHT22;63461;51.416;6.758;2023-04-19T04:51:06;10.70;99.90
74901;DHT22;63461;51.416;6.758;2023-04-19T05:00:31;10.60;99.90
74901;DHT22;63461;51.416;6.758;2023-04-19T05:34:47;10.50;99.90
74901;DHT22;63461;51.416;6.758;2023-04-19T05:37:15;10.50;99.90
74901;DHT22;63461;51.416;6.758;2023-04-19T05:40:20;10.50;99.90
74901;DHT22;63461;51.416;6.758;2023-04-19T05:43:22;10.50;99.90
74901;DHT22;63461;51.416;6.758;2023-04-19T05:45:56;10.50;99.90
74901;DHT22;63461;51.416;6.758;2023-04-19T05:48:53;10.40;99.90
74901;DHT22;63461;51.416;6.758;2023-04-19T05:52:11;10.40;99.90
74901;DHT22;63461;51.416;6.758;2023-04-19T06:25:35;10.30;99.90
74901;DHT22;63461;51.416;6.758;2023-04-19T06:28:01;10.30;99.90
74901;DHT22;63461;51.416;6.758;2023-04-19T06:30:26;10.20;99.90
74901;DHT22;63461;51.416;6.758;2023-04-19T06:32:55;10.20;99.90
74901;DHT22;63461;51.416;6.758;2023-04-19T06:35:21;10.20;99.90
74901;DHT22;63461;51.416;6.758;2023-04-19T06:37:53;10.20;99.90
74901;DHT22;63461;51.416;6.758;2023-04-19T06:40:19;10.10;99.90
74901;DHT22;63461;51.416;6.758;2023-04-19T06:42:50;10.20;99.90
74901;DHT22;63461;51.416;6.758;2023-04-19T06:45:16;10.20;99.90
74901;DHT22;63461;51.416;6.758;2023-04-19T06:47:42;10.20;99.90
74901;DHT22;63461;51.416;6.758;2023-04-19T06:50:10;10.30;99.90
74901;DHT22;63461;51.416;6.758;2023-04-19T06:52:37;10.30;99.90
74901;DHT22;63461;51.416;6.758;2023-04-19T06:55:05;10.30;99.90
74901;DHT22;63461;51.416;6.758;2023-04-19T06:57:31;10.30;99.90
74901;DHT22;63461;51.416;6.758;2023-04-19T07:00:00;10.40;99.90
74901;DHT22;63461;51.416;6.758;2023-04-19T07:02:26;10.50;99.90
74901;DHT22;63461;51.416;6.758;2023-04-19T07:04:54;10.50;99.90
74901;DHT22;63461;51.416;6.758;2023-04-19T07:07:20;10.50;99.90
74901;DHT22;63461;51.416;6.758;2023-04-19T07:09:46;10.50;99.90
74901;DHT22;63461;51.416;6.758;2023-04-19T07:12:12;10.50;99.90
74901;DHT22;63461;51.416;6.758;2023-04-19T07:14:38;10.60;99.90
74901;DHT22;63461;51.416;6.758;2023-04-19T07:17:06;10.60;99.90
74901;DHT22;63461;51.416;6.758;2023-04-19T07:19:32;10.70;99.90
74901;DHT22;63461;51.416;6.758;2023-04-19T07:22:00;10.70;99.90
74901;DHT22;63461;51.416;6.758;2023-04-19T07:24:25;10.70;99.90
74901;DHT22;63461;51.416;6.758;2023-04-19T07:26:54;10.70;99.90
74901;DHT22;63461;51.416;6.758;2023-04-19T07:29:20;10.70;99.90
74901;DHT22;63461;51.416;6.758;2023-04-19T07:31:46;10.80;99.90
74901;DHT22;63461;51.416;6.758;2023-04-19T07:34:11;10.80;99.90
74901;DHT22;63461;51.416;6.758;2023-04-19T07:36:37;10.90;99.90
74901;DHT22;63461;51.416;6.758;2023-04-19T07:39:03;10.80;99.90
74901;DHT22;63461;51.416;6.758;2023-04-19T07:41:31;10.90;99.90
74901;DHT22;63461;51.416;6.758;2023-04-19T07:43:56;10.90;99.90
74901;DHT22;63461;51.416;6.758;2023-04-19T07:46:22;11.00;99.90
74901;DHT22;63461;51.416;6.758;2023-04-19T07:48:51;11.00;99.90
74901;DHT22;63461;51.416;6.758;2023-04-19T07:51:17;11.00;99.90
74901;DHT22;63461;51.416;6.758;2023-04-19T07:53:45;11.00;99.90
74901;DHT22;63461;51.416;6.758;2023-04-19T07:56:13;11.00;99.90
74901;DHT22;63461;51.416;6.758;2023-04-19T07:58:40;11.10;99.90
74901;DHT22;63461;51.416;6.758;2023-04-19T08:01:06;11.10;99.90
74901;DHT22;63461;51.416;6.758;2023-04-19T08:03:33;11.20;99.90
74901;DHT22;63461;51.416;6.758;2023-04-19T08:06:03;11.10;99.50
74901;DHT22;63461;51.416;6.758;2023-04-19T08:08:30;11.10;98.60
74901;DHT22;63461;51.416;6.758;2023-04-19T08:10:56;11.00;97.80
74901;DHT22;63461;51.416;6.758;2023-04-19T08:13:22;11.10;97.80
74901;DHT22;63461;51.416;6.758;2023-04-19T08:15:48;11.10;96.60
74901;DHT22;63461;51.416;6.758;2023-04-19T08:18:14;11.10;96.60
74901;DHT22;63461;51.416;6.758;2023-04-19T08:20:40;11.20;95.80
74901;DHT22;63461;51.416;6.758;2023-04-19T08:23:09;11.10;95.70
74901;DHT22;63461;51.416;6.758;2023-04-19T08:25:38;11.20;95.20
74901;DHT22;63461;51.416;6.758;2023-04-19T08:28:04;11.20;95.30
74901;DHT22;63461;51.416;6.758;2023-04-19T08:30:33;11.20;95.30
74901;DHT22;63461;51.416;6.758;2023-04-19T08:32:59;11.20;95.00
74901;DHT22;63461;51.416;6.758;2023-04-19T08:35:26;11.20;95.00
74901;DHT22;63461;51.416;6.758;2023-04-19T08:37:51;11.30;94.80
74901;DHT22;63461;51.416;6.758;2023-04-19T08:40:20;11.30;94.50
74901;DHT22;63461;51.416;6.758;2023-04-19T08:42:46;11.30;94.50
74901;DHT22;63461;51.416;6.758;2023-04-19T08:45:17;11.40;94.20
74901;DHT22;63461;51.416;6.758;2023-04-19T08:47:44;11.40;94.00
74901;DHT22;63461;51.416;6.758;2023-04-19T08:50:11;11.50;94.20
74901;DHT22;63461;51.416;6.758;2023-04-19T08:52:37;11.50;93.90
74901;DHT22;63461;51.416;6.758;2023-04-19T08:55:10;11.50;93.70
74901;DHT22;63461;51.416;6.758;2023-04-19T08:57:36;11.50;93.60
74901;DHT22;63461;51.416;6.758;2023-04-19T09:00:03;11.40;93.40
74901;DHT22;63461;51.416;6.758;2023-04-19T09:02:50;11.50;93.60
74901;DHT22;63461;51.416;6.758;2023-04-19T09:05:17;11.50;92.70
74901;DHT22;63461;51.416;6.758;2023-04-19T09:07:44;11.40;92.70
74901;DHT22;63461;51.416;6.758;2023-04-19T09:10:15;11.40;92.60
74901;DHT22;63461;51.416;6.758;2023-04-19T09:13:02;11.40;92.60
74901;DHT22;63461;51.416;6.758;2023-04-19T09:15:36;11.30;91.90
74901;DHT22;63461;51.416;6.758;2023-04-19T09:18:07;11.40;92.10
74901;DHT22;63461;51.416;6.758;2023-04-19T09:20:41;11.30;91.90
74901;DHT22;63461;51.416;6.758;2023-04-19T09:23:13;11.40;92.10
74901;DHT22;63461;51.416;6.758;2023-04-19T09:25:59;11.50;92.00
74901;DHT22;63461;51.416;6.758;2023-04-19T09:28:26;11.50;91.40
74901;DHT22;63461;51.416;6.758;2023-04-19T09:30:56;11.50;90.90
74901;DHT22;63461;51.416;6.758;2023-04-19T09:33:33;11.50;90.60
74901;DHT22;63461;51.416;6.758;2023-04-19T09:36:02;11.50;90.50
74901;DHT22;63461;51.416;6.758;2023-04-19T09:38:28;11.50;90.20
74901;DHT22;63461;51.416;6.758;2023-04-19T09:41:07;11.60;90.60
74901;DHT22;63461;51.416;6.758;2023-04-19T09:43:33;11.60;90.10
74901;DHT22;63461;51.416;6.758;2023-04-19T09:45:59;11.60;88.60
74901;DHT22;63461;51.416;6.758;2023-04-19T09:48:25;11.70;90.20
74901;DHT22;63461;51.416;6.758;2023-04-19T09:50:53;11.80;89.70
74901;DHT22;63461;51.416;6.758;2023-04-19T09:53:23;11.70;88.20
74901;DHT22;63461;51.416;6.758;2023-04-19T09:55:50;11.70;88.50
74901;DHT22;63461;51.416;6.758;2023-04-19T09:58:18;11.80;86.00
74901;DHT22;63461;51.416;6.758;2023-04-19T10:00:46;11.90;84.20
74901;DHT22;63461;51.416;6.758;2023-04-19T10:03:14;11.90;80.90
74901;DHT22;63461;51.416;6.758;2023-04-19T10:05:41;11.90;78.10
74901;DHT22;63461;51.416;6.758;2023-04-19T10:08:12;11.90;79.30
74901;DHT22;63461;51.416;6.758;2023-04-19T10:10:41;11.90;78.30
74901;DHT22;63461;51.416;6.758;2023-04-19T10:13:17;11.90;79.50
74901;DHT22;63461;51.416;6.758;2023-04-19T10:15:48;12.00;81.80
74901;DHT22;63461;51.416;6.758;2023-04-19T10:18:16;12.00;83.20
74901;DHT22;63461;51.416;6.758;2023-04-19T10:20:58;11.90;82.50
74901;DHT22;63461;51.416;6.758;2023-04-19T10:23:31;11.90;81.10
74901;DHT22;63461;51.416;6.758;2023-04-19T10:25:58;11.90;81.10
74901;DHT22;63461;51.416;6.758;2023-04-19T10:28:29;11.90;81.70
74901;DHT22;63461;51.416;6.758;2023-04-19T10:31:03;11.90;78.20
74901;DHT22;63461;51.416;6.758;2023-04-19T10:33:36;11.90;81.40
74901;DHT22;63461;51.416;6.758;2023-04-19T10:36:08;12.00;82.60
74901;DHT22;63461;51.416;6.758;2023-04-19T10:38:42;11.90;81.50
74901;DHT22;63461;51.416;6.758;2023-04-19T10:41:12;11.90;80.70
74901;DHT22;63461;51.416;6.758;2023-04-19T10:49:03;11.90;77.90
74901;DHT22;63461;51.416;6.758;2023-04-19T10:51:40;11.90;79.00
74901;DHT22;63461;51.416;6.758;2023-04-19T10:54:28;12.00;79.00
74901;DHT22;63461;51.416;6.758;2023-04-19T10:57:00;11.90;77.80
74901;DHT22;63461;51.416;6.758;2023-04-19T10:59:34;11.90;78.30
74901;DHT22;63461;51.416;6.758;2023-04-19T11:02:05;12.00;78.00
74901;DHT22;63461;51.416;6.758;2023-04-19T11:04:56;12.00;78.00
74901;DHT22;63461;51.416;6.758;2023-04-19T11:07:23;12.00;79.00
74901;DHT22;63461;51.416;6.758;2023-04-19T11:09:51;12.10;80.20
74901;DHT22;63461;51.416;6.758;2023-04-19T11:12:19;12.10;80.70
74901;DHT22;63461;51.416;6.758;2023-04-19T11:17:27;12.10;80.70
74901;DHT22;63461;51.416;6.758;2023-04-19T11:23:17;12.00;80.20
74901;DHT22;63461;51.416;6.758;2023-04-19T11:26:04;12.10;79.40
74901;DHT22;63461;51.416;6.758;2023-04-19T11:28:32;12.20;79.90
74901;DHT22;63461;51.416;6.758;2023-04-19T11:30:58;12.20;79.00
74901;DHT22;63461;51.416;6.758;2023-04-19T11:33:35;12.20;79.30
74901;DHT22;63461;51.416;6.758;2023-04-19T11:36:02;12.20;78.30
74901;DHT22;63461;51.416;6.758;2023-04-19T11:38:29;12.30;78.90
74901;DHT22;63461;51.416;6.758;2023-04-19T11:40:59;12.30;78.90
74901;DHT22;63461;51.416;6.758;2023-04-19T11:43:36;12.30;77.50
74901;DHT22;63461;51.416;6.758;2023-04-19T11:46:09;12.30;77.00
74901;DHT22;63461;51.416;6.758;2023-04-19T11:48:36;12.30;75.00
74901;DHT22;63461;51.416;6.758;2023-04-19T11:51:10;12.30;73.50
74901;DHT22;63461;51.416;6.758;2023-04-19T11:53:36;12.30;74.70
74901;DHT22;63461;51.416;6.758;2023-04-19T11:56:06;12.40;75.20
74901;DHT22;63461;51.416;6.758;2023-04-19T12:01:13;12.40;72.60
74901;DHT22;63461;51.416;6.758;2023-04-19T12:03:54;12.50;72.30
74901;DHT22;63461;51.416;6.758;2023-04-19T12:06:29;12.40;72.80
74901;DHT22;63461;51.416;6.758;2023-04-19T12:09:06;12.50;73.60
74901;DHT22;63461;51.416;6.758;2023-04-19T12:11:44;12.60;73.30
74901;DHT22;63461;51.416;6.758;2023-04-19T12:14:15;12.60;72.60
74901;DHT22;63461;51.416;6.758;2023-04-19T12:16:44;12.70;73.10
74901;DHT22;63461;51.416;6.758;2023-04-19T12:19:12;12.70;72.80
74901;DHT22;63461;51.416;6.758;2023-04-19T12:21:48;12.80;72.20
74901;DHT22;63461;51.416;6.758;2023-04-19T12:24:15;12.90;72.10
74901;DHT22;63461;51.416;6.758;2023-04-19T12:26:59;12.80;72.10
74901;DHT22;63461;51.416;6.758;2023-04-19T12:29:28;12.80;71.80
74901;DHT22;63461;51.416;6.758;2023-04-19T12:32:00;12.90;71.40
74901;DHT22;63461;51.416;6.758;2023-04-19T12:34:29;12.90;69.10
74901;DHT22;63461;51.416;6.758;2023-04-19T12:36:58;12.90;69.10
74901;DHT22;63461;51.416;6.758;2023-04-19T12:39:24;12.80;70.10
74901;DHT22;63461;51.416;6.758;2023-04-19T12:42:08;12.80;69.80
74901;DHT22;63461;51.416;6.758;2023-04-19T12:44:35;12.80;70.70
74901;DHT22;63461;51.416;6.758;2023-04-19T12:47:04;12.80;71.40
74901;DHT22;63461;51.416;6.758;2023-04-19T12:49:32;12.80;72.40
74901;DHT22;63461;51.416;6.758;2023-04-19T12:52:01;12.80;71.50
74901;DHT22;63461;51.416;6.758;2023-04-19T12:54:37;12.90;71.40
74901;DHT22;63461;51.416;6.758;2023-04-19T12:57:28;13.00;71.00
74901;DHT22;63461;51.416;6.758;2023-04-19T13:00:18;13.00;70.40
74901;DHT22;63461;51.416;6.758;2023-04-19T13:02:47;13.10;69.80
74901;DHT22;63461;51.416;6.758;2023-04-19T13:05:31;13.10;69.40
74901;DHT22;63461;51.416;6.758;2023-04-19T13:08:40;13.00;70.10
74901;DHT22;63461;51.416;6.758;2023-04-19T13:11:15;13.10;69.50
74901;DHT22;63461;51.416;6.758;2023-04-19T13:13:48;13.00;67.70
74901;DHT22;63461;51.416;6.758;2023-04-19T13:16:30;13.10;68.90
74901;DHT22;63461;51.416;6.758;2023-04-19T13:22:28;13.10;68.80
74901;DHT22;63461;51.416;6.758;2023-04-19T14:38:19;13.60;67.10
74901;DHT22;63461;51.416;6.758;2023-04-19T14:40:59;13.70;66.90
74901;DHT22;63461;51.416;6.758;2023-04-19T14:43:29;13.60;65.80
74901;DHT22;63461;51.416;6.758;2023-04-19T14:45:55;13.60;66.90
74901;DHT22;63461;51.416;6.758;2023-04-19T14:48:23;13.60;67.30
74901;DHT22;63461;51.416;6.758;2023-04-19T14:50:50;13.70;65.90
74901;DHT22;63461;51.416;6.758;2023-04-19T14:53:21;13.70;64.90
74901;DHT22;63461;51.416;6.758;2023-04-19T14:56:36;13.70;65.20
74901;DHT22;63461;51.416;6.758;2023-04-19T14:59:17;13.70;65.20
74901;DHT22;63461;51.416;6.758;2023-04-19T15:01:52;13.60;65.80
74901;DHT22;63461;51.416;6.758;2023-04-19T15:04:20;13.80;65.50
74901;DHT22;63461;51.416;6.758;2023-04-19T15:06:55;13.80;65.10
74901;DHT22;63461;51.416;6.758;2023-04-19T15:09:54;13.80;65.10
74901;DHT22;63461;51.416;6.758;2023-04-19T15:12:45;13.80;63.80
74901;DHT22;63461;51.416;6.758;2023-04-19T15:15:43;13.70;63.90
74901;DHT22;63461;51.416;6.758;2023-04-19T15:18:16;13.80;64.50
74901;DHT22;63461;51.416;6.758;2023-04-19T15:20:50;13.70;64.10
74901;DHT22;63461;51.416;6.758;2023-04-19T15:23:24;13.70;64.60
74901;DHT22;63461;51.416;6.758;2023-04-19T15:25:53;13.70;64.80
74901;DHT22;63461;51.416;6.758;2023-04-19T15:28:23;13.70;65.10
74901;DHT22;63461;51.416;6.758;2023-04-19T15:31:00;13.60;65.20
74901;DHT22;63461;51.416;6.758;2023-04-19T15:33:31;13.70;65.80
74901;DHT22;63461;51.416;6.758;2023-04-19T15:36:01;13.80;65.20
74901;DHT22;63461;51.416;6.758;2023-04-19T15:38:29;13.80;65.00
74901;DHT22;63461;51.416;6.758;2023-04-19T15:40:57;13.80;64.60
74901;DHT22;63461;51.416;6.758;2023-04-19T15:43:24;13.70;64.90
74901;DHT22;63461;51.416;6.758;2023-04-19T15:45:54;13.80;65.30
74901;DHT22;63461;51.416;6.758;2023-04-19T15:48:22;13.80;64.80
74901;DHT22;63461;51.416;6.758;2023-04-19T15:50:48;13.80;64.30
74901;DHT22;63461;51.416;6.758;2023-04-19T15:53:15;13.70;64.90
74901;DHT22;63461;51.416;6.758;2023-04-19T15:55:47;13.70;65.00
74901;DHT22;63461;51.416;6.758;2023-04-19T15:58:14;13.80;64.20
74901;DHT22;63461;51.416;6.758;2023-04-19T16:00:40;13.70;64.40
74901;DHT22;63461;51.416;6.758;2023-04-19T16:03:09;13.70;64.70
74901;DHT22;63461;51.416;6.758;2023-04-19T16:05:39;13.70;64.10
74901;DHT22;63461;51.416;6.758;2023-04-19T16:08:07;13.70;64.50
74901;DHT22;63461;51.416;6.758;2023-04-19T16:10:34;13.60;64.90
74901;DHT22;63461;51.416;6.758;2023-04-19T16:13:12;13.70;65.60
74901;DHT22;63461;51.416;6.758;2023-04-19T16:15:42;13.80;65.50
74901;DHT22;63461;51.416;6.758;2023-04-19T16:18:11;13.70;65.50
74901;DHT22;63461;51.416;6.758;2023-04-19T16:20:44;13.90;64.80
74901;DHT22;63461;51.416;6.758;2023-04-19T16:23:10;13.80;65.60
74901;DHT22;63461;51.416;6.758;2023-04-19T16:25:42;13.70;65.70
74901;DHT22;63461;51.416;6.758;2023-04-19T16:28:11;13.60;65.90
74901;DHT22;63461;51.416;6.758;2023-04-19T16:30:37;13.70;64.00
74901;DHT22;63461;51.416;6.758;2023-04-19T16:33:04;13.60;62.50
74901;DHT22;63461;51.416;6.758;2023-04-19T16:35:33;13.70;62.60
74901;DHT22;63461;51.416;6.758;2023-04-19T16:37:59;13.70;62.40
74901;DHT22;63461;51.416;6.758;2023-04-19T16:40:29;13.60;63.20
74901;DHT22;63461;51.416;6.758;2023-04-19T16:42:56;13.60;62.00
74901;DHT22;63461;51.416;6.758;2023-04-19T16:45:25;13.70;62.30
74901;DHT22;63461;51.416;6.758;2023-04-19T16:47:52;13.60;62.40
74901;DHT22;63461;51.416;6.758;2023-04-19T16:50:21;13.60;61.40
74901;DHT22;63461;51.416;6.758;2023-04-19T16:52:49;13.60;61.90
74901;DHT22;63461;51.416;6.758;2023-04-19T16:55:17;13.60;61.60
74901;DHT22;63461;51.416;6.758;2023-04-19T16:58:02;13.50;61.40
74901;DHT22;63461;51.416;6.758;2023-04-19T17:00:41;13.50;61.70
74901;DHT22;63461;51.416;6.758;2023-04-19T17:03:24;13.50;61.20
74901;DHT22;63461;51.416;6.758;2023-04-19T17:06:14;13.50;61.60
74901;DHT22;63461;51.416;6.758;2023-04-19T17:12:54;13.40;62.30
74901;DHT22;63461;51.416;6.758;2023-04-19T17:15:44;13.40;61.30
74901;DHT22;63461;51.416;6.758;2023-04-19T17:18:49;13.30;60.60
74901;DHT22;63461;51.416;6.758;2023-04-19T17:21:24;13.20;61.00
74901;DHT22;63461;51.416;6.758;2023-04-19T17:45:23;13.00;62.40
74901;DHT22;63461;51.416;6.758;2023-04-19T17:48:07;12.90;61.00
74901;DHT22;63461;51.416;6.758;2023-04-19T17:50:45;12.90;60.40
74901;DHT22;63461;51.416;6.758;2023-04-19T17:53:29;12.90;61.00
74901;DHT22;63461;51.416;6.758;2023-04-19T17:56:27;12.80;60.90
74901;DHT22;63461;51.416;6.758;2023-04-19T17:59:39;12.80;61.30
74901;DHT22;63461;51.416;6.758;2023-04-19T18:02:07;12.70;61.90
74901;DHT22;63461;51.416;6.758;2023-04-19T18:07:23;12.60;62.60
74901;DHT22;63461;51.416;6.758;2023-04-19T18:09:49;12.60;62.90
74901;DHT22;63461;51.416;6.758;2023-04-19T18:12:15;12.50;63.70
74901;DHT22;63461;51.416;6.758;2023-04-19T18:14:41;12.50;63.90
74901;DHT22;63461;51.416;6.758;2023-04-19T18:17:06;12.50;63.70
74901;DHT22;63461;51.416;6.758;2023-04-19T18:19:32;12.50;64.20
74901;DHT22;63461;51.416;6.758;2023-04-19T18:21:58;12.40;64.00
74901;DHT22;63461;51.416;6.758;2023-04-19T18:24:25;12.40;64.50
74901;DHT22;63461;51.416;6.758;2023-04-19T18:26:51;12.40;64.20
74901;DHT22;63461;51.416;6.758;2023-04-19T18:29:17;12.30;64.60
74901;DHT22;63461;51.416;6.758;2023-04-19T18:31:45;12.20;65.30
74901;DHT22;63461;51.416;6.758;2023-04-19T18:34:11;12.20;65.40
74901;DHT22;63461;51.416;6.758;2023-04-19T18:36:36;12.20;65.40
74901;DHT22;63461;51.416;6.758;2023-04-19T18:39:02;12.10;65.70
74901;DHT22;63461;51.416;6.758;2023-04-19T18:41:28;12.10;65.60
74901;DHT22;63461;51.416;6.758;2023-04-19T18:43:54;12.10;65.90
74901;DHT22;63461;51.416;6.758;2023-04-19T18:46:20;12.00;66.70
74901;DHT22;63461;51.416;6.758;2023-04-19T18:48:46;12.00;66.20
74901;DHT22;63461;51.416;6.758;2023-04-19T18:51:12;11.90;66.70
74901;DHT22;63461;51.416;6.758;2023-04-19T18:53:38;11.90;66.90
74901;DHT22;63461;51.416;6.758;2023-04-19T18:56:07;11.90;66.90
74901;DHT22;63461;51.416;6.758;2023-04-19T18:58:34;11.80;67.40
74901;DHT22;63461;51.416;6.758;2023-04-19T19:01:04;11.80;67.60
74901;DHT22;63461;51.416;6.758;2023-04-19T19:13:06;11.70;68.50
74901;DHT22;63461;51.416;6.758;2023-04-19T19:34:36;11.50;71.00
74901;DHT22;63461;51.416;6.758;2023-04-19T19:54:53;11.30;72.50
74901;DHT22;63461;51.416;6.758;2023-04-19T21:36:54;10.30;76.70
74901;DHT22;63461;51.416;6.758;2023-04-19T21:43:34;10.30;77.00
74901;DHT22;63461;51.416;6.758;2023-04-19T21:46:42;10.20;76.00
74901;DHT22;63461;51.416;6.758;2023-04-19T21:49:14;10.20;76.50
74901;DHT22;63461;51.416;6.758;2023-04-19T21:52:01;10.20;75.50
74901;DHT22;63461;51.416;6.758;2023-04-19T21:54:56;10.10;75.30
74901;DHT22;63461;51.416;6.758;2023-04-19T21:57:31;10.10;75.80
74901;DHT22;63461;51.416;6.758;2023-04-19T22:00:34;10.10;75.50
74901;DHT22;63461;51.416;6.758;2023-04-19T22:03:27;10.10;75.50
74901;DHT22;63461;51.416;6.758;2023-04-19T22:05:56;10.00;75.30
74901;DHT22;63461;51.416;6.758;2023-04-19T22:09:39;10.00;75.30
74901;DHT22;63461;51.416;6.758;2023-04-19T22:13:03;10.00;75.30
74901;DHT22;63461;51.416;6.758;2023-04-19T22:15:47;10.00;74.80
74901;DHT22;63461;51.416;6.758;2023-04-19T22:26:45;9.90;74.70
74901;DHT22;63461;51.416;6.758;2023-04-19T22:29:51;9.80;74.80
74901;DHT22;63461;51.416;6.758;2023-04-19T22:36:42;9.80;74.90
74901;DHT22;63461;51.416;6.758;2023-04-19T22:39:22;9.80;75.10
74901;DHT22;63461;51.416;6.758;2023-04-19T22:50:11;9.70;75.50
74901;DHT22;63461;51.416;6.758;2023-04-19T22:53:11;9.60;75.60
74901;DHT22;63461;51.416;6.758;2023-04-19T22:55:42;9.70;76.20
74901;DHT22;63461;51.416;6.758;2023-04-19T23:01:51;9.60;75.50
74901;DHT22;63461;51.416;6.758;2023-04-19T23:04:19;9.70;75.20
74901;DHT22;63461;51.416;6.758;2023-04-19T23:07:34;9.60;75.10
74901;DHT22;63461;51.416;6.758;2023-04-19T23:10:18;9.60;75.20
74901;DHT22;63461;51.416;6.758;2023-04-19T23:13:24;9.60;75.00
74901;DHT22;63461;51.416;6.758;2023-04-19T23:15:56;9.60;75.50
74901;DHT22;63461;51.416;6.758;2023-04-19T23:18:52;9.60;75.40
74901;DHT22;63461;51.416;6.758;2023-04-19T23:21:21;9.60;75.50
74901;DHT22;63461;51.416;6.758;2023-04-19T23:27:55;9.50;75.70
74901;DHT22;63461;51.416;6.758;2023-04-19T23:39:56;9.40;75.70
74901;DHT22;63461;51.416;6.758;2023-04-19T23:43:16;9.30;76.00
